sensor_id;sensor_type;location;lat;lon;timestamp;temperature;humidity
13713;DHT22;6928;50.546;7.120;2024-01-25T00:00:51;9.76;68.97
13713;DHT22;6928;50.546;7.120;2024-01-25T00:03:18;9.76;68.96
13713;DHT22;6928;50.546;7.120;2024-01-25T00:05:47;9.77;68.96
13713;DHT22;6928;50.546;7.120;2024-01-25T00:08:13;9.84;69.07
13713;DHT22;6928;50.546;7.120;2024-01-25T00:10:41;9.83;68.99
13713;DHT22;6928;50.546;7.120;2024-01-25T00:13:08;9.80;69.11
13713;DHT22;6928;50.546;7.120;2024-01-25T00:15:35;9.83;69.12
13713;DHT22;6928;50.546;7.120;2024-01-25T00:18:02;9.83;69.13
13713;DHT22;6928;50.546;7.120;2024-01-25T00:20:29;9.82;69.25
13713;DHT22;6928;50.546;7.120;2024-01-25T00:22:57;9.80;69.28
13713;DHT22;6928;50.546;7.120;2024-01-25T00:25:24;9.79;69.46
13713;DHT22;6928;50.546;7.120;2024-01-25T00:27:50;9.77;69.67
13713;DHT22;6928;50.546;7.120;2024-01-25T00:30:17;9.79;69.61
13713;DHT22;6928;50.546;7.120;2024-01-25T00:32:44;9.74;69.65
13713;DHT22;6928;50.546;7.120;2024-01-25T00:35:13;9.76;69.76
13713;DHT22;6928;50.546;7.120;2024-01-25T00:37:41;9.72;69.88
13713;DHT22;6928;50.546;7.120;2024-01-25T00:40:10;9.72;70.01
13713;DHT22;6928;50.546;7.120;2024-01-25T00:42:42;9.77;69.87
13713;DHT22;6928;50.546;7.120;2024-01-25T00:45:11;9.76;70.05
13713;DHT22;6928;50.546;7.120;2024-01-25T00:47:38;9.73;70.35
13713;DHT22;6928;50.546;7.120;2024-01-25T00:50:07;9.73;70.40
13713;DHT22;6928;50.546;7.120;2024-01-25T00:52:34;9.72;70.43
13713;DHT22;6928;50.546;7.120;2024-01-25T00:55:02;9.76;70.55
13713;DHT22;6928;50.546;7.120;2024-01-25T00:57:32;9.70;70.79
13713;DHT22;6928;50.546;7.120;2024-01-25T01:00:00;9.74;70.86
13713;DHT22;6928;50.546;7.120;2024-01-25T01:02:30;9.72;70.92
13713;DHT22;6928;50.546;7.120;2024-01-25T01:04:58;9.67;71.23
13713;DHT22;6928;50.546;7.120;2024-01-25T01:07:25;9.69;71.36
13713;DHT22;6928;50.546;7.120;2024-01-25T01:09:52;9.66;71.35
13713;DHT22;6928;50.546;7.120;2024-01-25T01:12:19;9.63;71.56
13713;DHT22;6928;50.546;7.120;2024-01-25T01:14:47;9.69;71.52
13713;DHT22;6928;50.546;7.120;2024-01-25T01:17:14;9.62;71.67
13713;DHT22;6928;50.546;7.120;2024-01-25T01:19:41;9.52;72.00
13713;DHT22;6928;50.546;7.120;2024-01-25T01:22:08;9.56;72.09
13713;DHT22;6928;50.546;7.120;2024-01-25T01:24:35;9.59;72.27
13713;DHT22;6928;50.546;7.120;2024-01-25T01:27:02;9.57;72.08
13713;DHT22;6928;50.546;7.120;2024-01-25T01:29:29;9.56;71.80
13713;DHT22;6928;50.546;7.120;2024-01-25T01:31:57;9.56;71.80
13713;DHT22;6928;50.546;7.120;2024-01-25T01:34:24;9.49;72.38
13713;DHT22;6928;50.546;7.120;2024-01-25T01:36:51;9.53;72.09
13713;DHT22;6928;50.546;7.120;2024-01-25T01:39:18;9.54;71.56
13713;DHT22;6928;50.546;7.120;2024-01-25T01:41:47;9.56;71.63
13713;DHT22;6928;50.546;7.120;2024-01-25T01:44:14;9.54;71.30
13713;DHT22;6928;50.546;7.120;2024-01-25T01:46:41;9.57;71.28
13713;DHT22;6928;50.546;7.120;2024-01-25T01:49:12;9.52;71.64
13713;DHT22;6928;50.546;7.120;2024-01-25T01:51:40;9.50;71.56
13713;DHT22;6928;50.546;7.120;2024-01-25T01:54:09;9.49;71.69
13713;DHT22;6928;50.546;7.120;2024-01-25T01:56:36;9.47;71.64
13713;DHT22;6928;50.546;7.120;2024-01-25T01:59:09;9.46;71.79
13713;DHT22;6928;50.546;7.120;2024-01-25T02:01:37;9.44;71.78
13713;DHT22;6928;50.546;7.120;2024-01-25T02:04:04;9.44;71.61
13713;DHT22;6928;50.546;7.120;2024-01-25T02:06:32;9.44;71.64
13713;DHT22;6928;50.546;7.120;2024-01-25T02:08:59;9.42;71.76
13713;DHT22;6928;50.546;7.120;2024-01-25T02:11:27;9.39;71.90
13713;DHT22;6928;50.546;7.120;2024-01-25T02:13:55;9.39;71.83
13713;DHT22;6928;50.546;7.120;2024-01-25T02:16:22;9.38;71.76
13713;DHT22;6928;50.546;7.120;2024-01-25T02:18:49;9.39;71.62
13713;DHT22;6928;50.546;7.120;2024-01-25T02:21:16;9.42;71.47
13713;DHT22;6928;50.546;7.120;2024-01-25T02:23:44;9.33;72.03
13713;DHT22;6928;50.546;7.120;2024-01-25T02:26:11;9.29;72.18
13713;DHT22;6928;50.546;7.120;2024-01-25T02:28:38;9.26;72.24
13713;DHT22;6928;50.546;7.120;2024-01-25T02:31:04;9.38;71.78
13713;DHT22;6928;50.546;7.120;2024-01-25T02:33:31;9.28;72.15
13713;DHT22;6928;50.546;7.120;2024-01-25T02:35:58;9.18;72.50
13713;DHT22;6928;50.546;7.120;2024-01-25T02:38:25;9.11;72.70
13713;DHT22;6928;50.546;7.120;2024-01-25T02:40:53;9.21;72.44
13713;DHT22;6928;50.546;7.120;2024-01-25T02:43:20;9.22;72.72
13713;DHT22;6928;50.546;7.120;2024-01-25T02:45:48;9.22;72.77
13713;DHT22;6928;50.546;7.120;2024-01-25T02:48:14;9.21;72.78
13713;DHT22;6928;50.546;7.120;2024-01-25T02:50:41;9.18;72.65
13713;DHT22;6928;50.546;7.120;2024-01-25T02:53:08;9.09;73.08
13713;DHT22;6928;50.546;7.120;2024-01-25T02:55:35;9.21;72.79
13713;DHT22;6928;50.546;7.120;2024-01-25T02:58:03;9.25;72.81
13713;DHT22;6928;50.546;7.120;2024-01-25T03:00:30;9.23;72.49
13713;DHT22;6928;50.546;7.120;2024-01-25T03:02:57;9.22;72.61
13713;DHT22;6928;50.546;7.120;2024-01-25T03:05:24;9.25;72.82
13713;DHT22;6928;50.546;7.120;2024-01-25T03:07:51;9.21;72.88
13713;DHT22;6928;50.546;7.120;2024-01-25T03:10:17;9.19;72.81
13713;DHT22;6928;50.546;7.120;2024-01-25T03:12:45;9.16;73.10
13713;DHT22;6928;50.546;7.120;2024-01-25T03:15:13;9.23;72.98
13713;DHT22;6928;50.546;7.120;2024-01-25T03:17:40;9.16;73.12
13713;DHT22;6928;50.546;7.120;2024-01-25T03:20:08;9.21;73.38
13713;DHT22;6928;50.546;7.120;2024-01-25T03:22:35;9.16;73.72
13713;DHT22;6928;50.546;7.120;2024-01-25T03:25:01;9.15;73.65
13713;DHT22;6928;50.546;7.120;2024-01-25T03:27:28;9.14;73.84
13713;DHT22;6928;50.546;7.120;2024-01-25T03:29:55;9.11;73.95
13713;DHT22;6928;50.546;7.120;2024-01-25T03:32:23;9.15;73.92
13713;DHT22;6928;50.546;7.120;2024-01-25T03:34:50;9.16;73.61
13713;DHT22;6928;50.546;7.120;2024-01-25T03:37:16;9.18;73.56
13713;DHT22;6928;50.546;7.120;2024-01-25T03:39:43;9.21;73.65
13713;DHT22;6928;50.546;7.120;2024-01-25T03:42:10;9.09;74.04
13713;DHT22;6928;50.546;7.120;2024-01-25T03:44:36;9.14;73.95
13713;DHT22;6928;50.546;7.120;2024-01-25T03:47:04;9.12;73.96
13713;DHT22;6928;50.546;7.120;2024-01-25T03:49:32;9.11;74.01
13713;DHT22;6928;50.546;7.120;2024-01-25T03:51:59;9.08;74.02
13713;DHT22;6928;50.546;7.120;2024-01-25T03:54:26;8.95;74.46
13713;DHT22;6928;50.546;7.120;2024-01-25T03:56:52;8.93;74.27
13713;DHT22;6928;50.546;7.120;2024-01-25T03:59:19;8.93;74.27
13713;DHT22;6928;50.546;7.120;2024-01-25T04:01:46;8.87;74.42
13713;DHT22;6928;50.546;7.120;2024-01-25T04:04:14;8.87;74.23
13713;DHT22;6928;50.546;7.120;2024-01-25T04:06:44;8.80;74.61
13713;DHT22;6928;50.546;7.120;2024-01-25T04:09:12;8.75;74.84
13713;DHT22;6928;50.546;7.120;2024-01-25T04:11:40;8.80;74.38
13713;DHT22;6928;50.546;7.120;2024-01-25T04:14:06;8.80;74.16
13713;DHT22;6928;50.546;7.120;2024-01-25T04:16:33;8.82;74.39
13713;DHT22;6928;50.546;7.120;2024-01-25T04:19:00;8.84;74.39
13713;DHT22;6928;50.546;7.120;2024-01-25T04:21:27;8.82;74.45
13713;DHT22;6928;50.546;7.120;2024-01-25T04:23:55;8.85;74.41
13713;DHT22;6928;50.546;7.120;2024-01-25T04:26:22;8.92;74.46
13713;DHT22;6928;50.546;7.120;2024-01-25T04:28:49;8.85;74.51
13713;DHT22;6928;50.546;7.120;2024-01-25T04:31:16;8.84;74.81
13713;DHT22;6928;50.546;7.120;2024-01-25T04:33:43;8.80;74.67
13713;DHT22;6928;50.546;7.120;2024-01-25T04:36:10;8.84;74.67
13713;DHT22;6928;50.546;7.120;2024-01-25T04:38:36;8.81;74.92
13713;DHT22;6928;50.546;7.120;2024-01-25T04:41:05;8.80;75.04
13713;DHT22;6928;50.546;7.120;2024-01-25T04:43:34;8.81;74.93
13713;DHT22;6928;50.546;7.120;2024-01-25T04:46:02;8.82;75.07
13713;DHT22;6928;50.546;7.120;2024-01-25T04:48:29;8.81;74.92
13713;DHT22;6928;50.546;7.120;2024-01-25T04:50:56;8.81;74.85
13713;DHT22;6928;50.546;7.120;2024-01-25T04:53:23;8.75;75.21
13713;DHT22;6928;50.546;7.120;2024-01-25T04:55:50;8.77;74.96
13713;DHT22;6928;50.546;7.120;2024-01-25T04:58:18;8.75;74.99
13713;DHT22;6928;50.546;7.120;2024-01-25T05:00:45;8.72;75.26
13713;DHT22;6928;50.546;7.120;2024-01-25T05:03:11;8.71;75.36
13713;DHT22;6928;50.546;7.120;2024-01-25T05:05:38;8.72;75.35
13713;DHT22;6928;50.546;7.120;2024-01-25T05:08:06;8.65;75.61
13713;DHT22;6928;50.546;7.120;2024-01-25T05:10:33;8.72;75.55
13713;DHT22;6928;50.546;7.120;2024-01-25T05:12:59;8.63;75.74
13713;DHT22;6928;50.546;7.120;2024-01-25T05:15:27;8.61;75.87
13713;DHT22;6928;50.546;7.120;2024-01-25T05:17:54;8.58;75.89
13713;DHT22;6928;50.546;7.120;2024-01-25T05:20:21;8.56;76.03
13713;DHT22;6928;50.546;7.120;2024-01-25T05:22:47;8.54;76.00
13713;DHT22;6928;50.546;7.120;2024-01-25T05:25:14;8.53;76.04
13713;DHT22;6928;50.546;7.120;2024-01-25T05:27:41;8.50;76.19
13713;DHT22;6928;50.546;7.120;2024-01-25T05:30:08;8.47;76.24
13713;DHT22;6928;50.546;7.120;2024-01-25T05:32:37;8.46;76.20
13713;DHT22;6928;50.546;7.120;2024-01-25T05:35:07;8.47;76.25
13713;DHT22;6928;50.546;7.120;2024-01-25T05:37:34;8.41;76.46
13713;DHT22;6928;50.546;7.120;2024-01-25T05:40:01;8.41;76.25
13713;DHT22;6928;50.546;7.120;2024-01-25T05:42:27;8.40;76.18
13713;DHT22;6928;50.546;7.120;2024-01-25T05:44:54;8.40;75.91
13713;DHT22;6928;50.546;7.120;2024-01-25T05:47:21;8.40;75.81
13713;DHT22;6928;50.546;7.120;2024-01-25T05:49:49;8.36;75.90
13713;DHT22;6928;50.546;7.120;2024-01-25T05:52:16;8.29;75.92
13713;DHT22;6928;50.546;7.120;2024-01-25T05:54:42;8.29;76.04
13713;DHT22;6928;50.546;7.120;2024-01-25T05:57:10;8.23;75.81
13713;DHT22;6928;50.546;7.120;2024-01-25T05:59:36;8.20;75.84
13713;DHT22;6928;50.546;7.120;2024-01-25T06:02:04;8.10;76.19
13713;DHT22;6928;50.546;7.120;2024-01-25T06:04:30;8.12;76.05
13713;DHT22;6928;50.546;7.120;2024-01-25T06:06:59;8.10;75.95
13713;DHT22;6928;50.546;7.120;2024-01-25T06:09:25;8.20;75.82
13713;DHT22;6928;50.546;7.120;2024-01-25T06:11:53;8.06;76.10
13713;DHT22;6928;50.546;7.120;2024-01-25T06:14:20;8.06;75.92
13713;DHT22;6928;50.546;7.120;2024-01-25T06:16:46;8.03;75.76
13713;DHT22;6928;50.546;7.120;2024-01-25T06:19:13;7.95;76.08
13713;DHT22;6928;50.546;7.120;2024-01-25T06:21:40;7.79;76.60
13713;DHT22;6928;50.546;7.120;2024-01-25T06:24:08;7.71;76.78
13713;DHT22;6928;50.546;7.120;2024-01-25T06:26:35;7.59;77.14
13713;DHT22;6928;50.546;7.120;2024-01-25T06:29:01;7.64;77.11
13713;DHT22;6928;50.546;7.120;2024-01-25T06:31:28;7.59;77.18
13713;DHT22;6928;50.546;7.120;2024-01-25T06:33:55;7.52;77.18
13713;DHT22;6928;50.546;7.120;2024-01-25T06:36:22;7.41;77.42
13713;DHT22;6928;50.546;7.120;2024-01-25T06:38:49;7.40;77.41
13713;DHT22;6928;50.546;7.120;2024-01-25T06:41:17;7.37;77.51
13713;DHT22;6928;50.546;7.120;2024-01-25T06:43:44;7.40;77.25
13713;DHT22;6928;50.546;7.120;2024-01-25T06:46:10;7.32;77.29
13713;DHT22;6928;50.546;7.120;2024-01-25T06:48:37;7.41;77.03
13713;DHT22;6928;50.546;7.120;2024-01-25T06:51:04;7.34;77.18
13713;DHT22;6928;50.546;7.120;2024-01-25T06:53:31;7.40;76.80
13713;DHT22;6928;50.546;7.120;2024-01-25T06:55:58;7.18;77.27
13713;DHT22;6928;50.546;7.120;2024-01-25T06:58:26;7.18;77.32
13713;DHT22;6928;50.546;7.120;2024-01-25T07:00:53;7.20;77.27
13713;DHT22;6928;50.546;7.120;2024-01-25T07:03:20;6.99;77.86
13713;DHT22;6928;50.546;7.120;2024-01-25T07:05:47;6.86;78.47
13713;DHT22;6928;50.546;7.120;2024-01-25T07:08:13;6.83;78.61
13713;DHT22;6928;50.546;7.120;2024-01-25T07:10:41;6.83;78.48
13713;DHT22;6928;50.546;7.120;2024-01-25T07:13:08;6.83;77.97
13713;DHT22;6928;50.546;7.120;2024-01-25T07:15:36;6.66;78.38
13713;DHT22;6928;50.546;7.120;2024-01-25T07:18:03;6.80;78.19
13713;DHT22;6928;50.546;7.120;2024-01-25T07:20:30;6.59;78.35
13713;DHT22;6928;50.546;7.120;2024-01-25T07:22:57;6.80;78.07
13713;DHT22;6928;50.546;7.120;2024-01-25T07:25:24;6.61;78.27
13713;DHT22;6928;50.546;7.120;2024-01-25T07:27:51;6.62;78.22
13713;DHT22;6928;50.546;7.120;2024-01-25T07:30:18;6.48;78.83
13713;DHT22;6928;50.546;7.120;2024-01-25T07:32:47;6.42;79.32
13713;DHT22;6928;50.546;7.120;2024-01-25T07:35:15;6.50;78.59
13713;DHT22;6928;50.546;7.120;2024-01-25T07:37:42;6.52;78.66
13713;DHT22;6928;50.546;7.120;2024-01-25T07:40:10;6.56;78.48
13713;DHT22;6928;50.546;7.120;2024-01-25T07:42:37;6.36;79.03
13713;DHT22;6928;50.546;7.120;2024-01-25T07:45:05;6.41;79.11
13713;DHT22;6928;50.546;7.120;2024-01-25T07:47:31;6.50;78.58
13713;DHT22;6928;50.546;7.120;2024-01-25T07:50:00;6.43;78.94
13713;DHT22;6928;50.546;7.120;2024-01-25T07:52:28;6.34;79.08
13713;DHT22;6928;50.546;7.120;2024-01-25T07:54:55;6.35;79.17
13713;DHT22;6928;50.546;7.120;2024-01-25T07:57:22;6.26;79.64
13713;DHT22;6928;50.546;7.120;2024-01-25T07:59:49;6.26;79.53
13713;DHT22;6928;50.546;7.120;2024-01-25T08:02:15;6.41;78.74
13713;DHT22;6928;50.546;7.120;2024-01-25T08:04:42;6.36;78.83
13713;DHT22;6928;50.546;7.120;2024-01-25T08:07:10;6.39;78.89
13713;DHT22;6928;50.546;7.120;2024-01-25T08:09:37;6.35;78.97
13713;DHT22;6928;50.546;7.120;2024-01-25T08:12:04;6.42;79.04
13713;DHT22;6928;50.546;7.120;2024-01-25T08:14:31;6.39;79.03
13713;DHT22;6928;50.546;7.120;2024-01-25T08:16:58;6.36;79.35
13713;DHT22;6928;50.546;7.120;2024-01-25T08:19:25;6.36;79.48
13713;DHT22;6928;50.546;7.120;2024-01-25T08:21:52;6.45;79.51
13713;DHT22;6928;50.546;7.120;2024-01-25T08:24:20;6.31;79.52
13713;DHT22;6928;50.546;7.120;2024-01-25T08:26:47;6.36;79.63
13713;DHT22;6928;50.546;7.120;2024-01-25T08:29:14;6.29;79.94
13713;DHT22;6928;50.546;7.120;2024-01-25T08:31:41;6.32;80.15
13713;DHT22;6928;50.546;7.120;2024-01-25T08:34:07;6.46;79.88
13713;DHT22;6928;50.546;7.120;2024-01-25T08:36:34;6.46;79.82
13713;DHT22;6928;50.546;7.120;2024-01-25T08:39:01;6.50;79.94
13713;DHT22;6928;50.546;7.120;2024-01-25T08:41:30;6.82;79.10
13713;DHT22;6928;50.546;7.120;2024-01-25T08:43:57;6.79;79.22
13713;DHT22;6928;50.546;7.120;2024-01-25T08:46:24;6.77;79.20
13713;DHT22;6928;50.546;7.120;2024-01-25T08:48:51;6.87;79.03
13713;DHT22;6928;50.546;7.120;2024-01-25T08:51:18;6.87;79.08
13713;DHT22;6928;50.546;7.120;2024-01-25T08:53:44;6.77;79.10
13713;DHT22;6928;50.546;7.120;2024-01-25T08:56:11;6.93;78.51
13713;DHT22;6928;50.546;7.120;2024-01-25T08:58:39;6.96;78.32
13713;DHT22;6928;50.546;7.120;2024-01-25T09:01:06;7.16;77.64
13713;DHT22;6928;50.546;7.120;2024-01-25T09:03:33;7.21;77.50
13713;DHT22;6928;50.546;7.120;2024-01-25T09:06:00;7.35;77.12
13713;DHT22;6928;50.546;7.120;2024-01-25T09:08:30;7.47;77.30
13713;DHT22;6928;50.546;7.120;2024-01-25T09:10:57;7.47;77.04
13713;DHT22;6928;50.546;7.120;2024-01-25T09:13:24;7.67;76.13
13713;DHT22;6928;50.546;7.120;2024-01-25T09:15:51;7.88;75.12
13713;DHT22;6928;50.546;7.120;2024-01-25T09:18:18;8.00;74.52
13713;DHT22;6928;50.546;7.120;2024-01-25T09:20:45;8.10;73.43
13713;DHT22;6928;50.546;7.120;2024-01-25T09:23:14;8.14;72.79
13713;DHT22;6928;50.546;7.120;2024-01-25T09:25:42;8.20;72.51
13713;DHT22;6928;50.546;7.120;2024-01-25T09:28:08;8.16;73.36
13713;DHT22;6928;50.546;7.120;2024-01-25T09:30:37;8.29;72.72
13713;DHT22;6928;50.546;7.120;2024-01-25T09:33:06;8.36;72.46
13713;DHT22;6928;50.546;7.120;2024-01-25T09:35:33;8.44;71.51
13713;DHT22;6928;50.546;7.120;2024-01-25T09:37:59;8.56;71.80
13713;DHT22;6928;50.546;7.120;2024-01-25T09:40:26;8.65;70.82
13713;DHT22;6928;50.546;7.120;2024-01-25T09:42:54;8.81;70.61
13713;DHT22;6928;50.546;7.120;2024-01-25T09:45:22;8.75;70.54
13713;DHT22;6928;50.546;7.120;2024-01-25T09:47:53;8.78;70.46
13713;DHT22;6928;50.546;7.120;2024-01-25T09:50:21;8.85;69.95
13713;DHT22;6928;50.546;7.120;2024-01-25T09:52:54;8.89;69.37
13713;DHT22;6928;50.546;7.120;2024-01-25T09:55:25;8.95;69.55
13713;DHT22;6928;50.546;7.120;2024-01-25T09:57:54;9.01;68.97
13713;DHT22;6928;50.546;7.120;2024-01-25T10:00:21;8.93;69.13
13713;DHT22;6928;50.546;7.120;2024-01-25T10:02:48;8.92;69.20
13713;DHT22;6928;50.546;7.120;2024-01-25T10:05:15;8.98;68.93
13713;DHT22;6928;50.546;7.120;2024-01-25T10:07:45;9.05;69.08
13713;DHT22;6928;50.546;7.120;2024-01-25T10:10:13;8.99;68.95
13713;DHT22;6928;50.546;7.120;2024-01-25T10:12:41;9.09;68.79
13713;DHT22;6928;50.546;7.120;2024-01-25T10:15:09;9.07;68.95
13713;DHT22;6928;50.546;7.120;2024-01-25T10:17:36;9.05;68.73
13713;DHT22;6928;50.546;7.120;2024-01-25T10:20:05;9.09;68.65
13713;DHT22;6928;50.546;7.120;2024-01-25T10:22:37;9.32;68.05
13713;DHT22;6928;50.546;7.120;2024-01-25T10:25:12;9.44;67.80
13713;DHT22;6928;50.546;7.120;2024-01-25T10:27:40;9.69;67.60
13713;DHT22;6928;50.546;7.120;2024-01-25T10:30:10;9.64;66.58
13713;DHT22;6928;50.546;7.120;2024-01-25T10:32:38;9.70;66.39
13713;DHT22;6928;50.546;7.120;2024-01-25T10:35:06;9.83;66.65
13713;DHT22;6928;50.546;7.120;2024-01-25T10:37:34;9.89;66.01
13713;DHT22;6928;50.546;7.120;2024-01-25T10:40:04;9.83;66.08
13713;DHT22;6928;50.546;7.120;2024-01-25T10:42:33;10.08;65.55
13713;DHT22;6928;50.546;7.120;2024-01-25T10:45:00;10.07;64.92
13713;DHT22;6928;50.546;7.120;2024-01-25T10:47:27;10.00;65.15
13713;DHT22;6928;50.546;7.120;2024-01-25T10:49:56;10.15;64.92
13713;DHT22;6928;50.546;7.120;2024-01-25T10:52:24;10.33;64.44
13713;DHT22;6928;50.546;7.120;2024-01-25T10:54:51;10.42;64.18
13713;DHT22;6928;50.546;7.120;2024-01-25T10:57:18;10.35;63.76
13713;DHT22;6928;50.546;7.120;2024-01-25T10:59:46;10.54;64.02
13713;DHT22;6928;50.546;7.120;2024-01-25T11:02:13;10.52;63.83
13713;DHT22;6928;50.546;7.120;2024-01-25T11:04:40;10.51;63.81
13713;DHT22;6928;50.546;7.120;2024-01-25T11:07:08;10.69;62.75
13713;DHT22;6928;50.546;7.120;2024-01-25T11:09:35;10.68;62.55
13713;DHT22;6928;50.546;7.120;2024-01-25T11:12:11;10.66;63.14
13713;DHT22;6928;50.546;7.120;2024-01-25T11:14:39;10.95;62.21
13713;DHT22;6928;50.546;7.120;2024-01-25T11:17:18;10.49;62.42
13713;DHT22;6928;50.546;7.120;2024-01-25T11:19:46;10.76;62.54
13713;DHT22;6928;50.546;7.120;2024-01-25T11:22:14;10.73;61.93
13713;DHT22;6928;50.546;7.120;2024-01-25T11:24:41;10.66;61.95
13713;DHT22;6928;50.546;7.120;2024-01-25T11:27:09;10.88;62.17
13713;DHT22;6928;50.546;7.120;2024-01-25T11:29:36;11.02;60.97
13713;DHT22;6928;50.546;7.120;2024-01-25T11:32:05;10.97;61.29
13713;DHT22;6928;50.546;7.120;2024-01-25T11:34:33;10.86;61.52
13713;DHT22;6928;50.546;7.120;2024-01-25T11:37:00;10.86;62.62
13713;DHT22;6928;50.546;7.120;2024-01-25T11:39:27;11.05;60.29
13713;DHT22;6928;50.546;7.120;2024-01-25T11:41:54;10.95;60.29
13713;DHT22;6928;50.546;7.120;2024-01-25T11:44:20;10.91;60.52
13713;DHT22;6928;50.546;7.120;2024-01-25T11:46:50;10.86;60.72
13713;DHT22;6928;50.546;7.120;2024-01-25T11:49:17;10.96;60.33
13713;DHT22;6928;50.546;7.120;2024-01-25T11:51:45;11.30;59.21
13713;DHT22;6928;50.546;7.120;2024-01-25T11:54:12;11.27;59.56
13713;DHT22;6928;50.546;7.120;2024-01-25T11:56:39;11.40;59.48
13713;DHT22;6928;50.546;7.120;2024-01-25T11:59:07;11.48;58.07
13713;DHT22;6928;50.546;7.120;2024-01-25T12:01:35;11.64;58.74
13713;DHT22;6928;50.546;7.120;2024-01-25T12:04:02;11.75;58.03
13713;DHT22;6928;50.546;7.120;2024-01-25T12:06:30;11.63;57.42
13713;DHT22;6928;50.546;7.120;2024-01-25T12:09:08;11.57;57.77
13713;DHT22;6928;50.546;7.120;2024-01-25T12:11:35;11.51;58.07
13713;DHT22;6928;50.546;7.120;2024-01-25T12:14:02;11.48;57.46
13713;DHT22;6928;50.546;7.120;2024-01-25T12:16:29;11.63;57.56
13713;DHT22;6928;50.546;7.120;2024-01-25T12:18:55;11.53;58.15
13713;DHT22;6928;50.546;7.120;2024-01-25T12:21:23;11.40;58.72
13713;DHT22;6928;50.546;7.120;2024-01-25T12:23:50;11.22;59.48
13713;DHT22;6928;50.546;7.120;2024-01-25T12:26:19;11.23;59.17
13713;DHT22;6928;50.546;7.120;2024-01-25T12:28:47;11.17;59.50
13713;DHT22;6928;50.546;7.120;2024-01-25T12:31:15;10.93;60.88
13713;DHT22;6928;50.546;7.120;2024-01-25T12:33:43;10.99;60.94
13713;DHT22;6928;50.546;7.120;2024-01-25T12:36:10;11.10;60.65
13713;DHT22;6928;50.546;7.120;2024-01-25T12:38:38;11.22;60.69
13713;DHT22;6928;50.546;7.120;2024-01-25T12:41:06;11.38;59.80
13713;DHT22;6928;50.546;7.120;2024-01-25T12:43:34;11.40;60.16
13713;DHT22;6928;50.546;7.120;2024-01-25T12:46:01;11.24;61.07
13713;DHT22;6928;50.546;7.120;2024-01-25T12:48:28;11.31;60.67
13713;DHT22;6928;50.546;7.120;2024-01-25T12:50:55;11.07;61.60
13713;DHT22;6928;50.546;7.120;2024-01-25T12:53:22;11.60;59.80
13713;DHT22;6928;50.546;7.120;2024-01-25T12:55:49;11.77;59.26
13713;DHT22;6928;50.546;7.120;2024-01-25T12:58:16;11.37;59.96
13713;DHT22;6928;50.546;7.120;2024-01-25T13:00:44;11.56;59.73
13713;DHT22;6928;50.546;7.120;2024-01-25T13:03:11;11.68;59.62
13713;DHT22;6928;50.546;7.120;2024-01-25T13:05:38;11.56;59.42
13713;DHT22;6928;50.546;7.120;2024-01-25T13:08:06;11.65;60.63
13713;DHT22;6928;50.546;7.120;2024-01-25T13:10:33;11.41;60.67
13713;DHT22;6928;50.546;7.120;2024-01-25T13:13:00;11.63;60.01
13713;DHT22;6928;50.546;7.120;2024-01-25T13:15:27;11.54;59.99
13713;DHT22;6928;50.546;7.120;2024-01-25T13:17:56;11.54;60.00
13713;DHT22;6928;50.546;7.120;2024-01-25T13:20:23;11.54;60.18
13713;DHT22;6928;50.546;7.120;2024-01-25T13:22:50;11.46;60.00
13713;DHT22;6928;50.546;7.120;2024-01-25T13:25:17;11.56;59.86
13713;DHT22;6928;50.546;7.120;2024-01-25T13:27:44;11.33;60.51
13713;DHT22;6928;50.546;7.120;2024-01-25T13:30:12;11.54;59.86
13713;DHT22;6928;50.546;7.120;2024-01-25T13:32:40;11.61;59.88
13713;DHT22;6928;50.546;7.120;2024-01-25T13:35:08;11.40;60.40
13713;DHT22;6928;50.546;7.120;2024-01-25T13:37:35;11.51;60.48
13713;DHT22;6928;50.546;7.120;2024-01-25T13:40:02;11.57;60.36
13713;DHT22;6928;50.546;7.120;2024-01-25T13:42:29;11.48;60.29
13713;DHT22;6928;50.546;7.120;2024-01-25T13:44:57;11.34;60.77
13713;DHT22;6928;50.546;7.120;2024-01-25T13:47:24;11.38;60.45
13713;DHT22;6928;50.546;7.120;2024-01-25T13:49:50;11.37;60.59
13713;DHT22;6928;50.546;7.120;2024-01-25T13:52:20;11.31;61.00
13713;DHT22;6928;50.546;7.120;2024-01-25T13:54:47;11.36;60.82
13713;DHT22;6928;50.546;7.120;2024-01-25T13:57:15;11.34;60.88
13713;DHT22;6928;50.546;7.120;2024-01-25T13:59:42;11.37;60.82
13713;DHT22;6928;50.546;7.120;2024-01-25T14:02:09;11.43;61.09
13713;DHT22;6928;50.546;7.120;2024-01-25T14:04:37;11.41;60.95
13713;DHT22;6928;50.546;7.120;2024-01-25T14:07:04;11.38;61.24
13713;DHT22;6928;50.546;7.120;2024-01-25T14:09:32;11.30;61.33
13713;DHT22;6928;50.546;7.120;2024-01-25T14:11:59;11.30;61.23
13713;DHT22;6928;50.546;7.120;2024-01-25T14:14:26;11.28;60.77
13713;DHT22;6928;50.546;7.120;2024-01-25T14:16:53;11.30;60.92
13713;DHT22;6928;50.546;7.120;2024-01-25T14:19:20;11.24;61.09
13713;DHT22;6928;50.546;7.120;2024-01-25T14:21:47;11.33;61.32
13713;DHT22;6928;50.546;7.120;2024-01-25T14:24:14;11.34;61.25
13713;DHT22;6928;50.546;7.120;2024-01-25T14:26:44;11.31;61.89
13713;DHT22;6928;50.546;7.120;2024-01-25T14:29:12;11.26;61.28
13713;DHT22;6928;50.546;7.120;2024-01-25T14:31:39;11.31;60.88
13713;DHT22;6928;50.546;7.120;2024-01-25T14:34:07;11.34;61.87
13713;DHT22;6928;50.546;7.120;2024-01-25T14:36:34;11.33;61.67
13713;DHT22;6928;50.546;7.120;2024-01-25T14:39:01;11.34;61.27
13713;DHT22;6928;50.546;7.120;2024-01-25T14:41:28;11.22;61.38
13713;DHT22;6928;50.546;7.120;2024-01-25T14:43:57;11.26;61.28
13713;DHT22;6928;50.546;7.120;2024-01-25T14:46:24;11.26;61.79
13713;DHT22;6928;50.546;7.120;2024-01-25T14:48:51;11.30;61.40
13713;DHT22;6928;50.546;7.120;2024-01-25T14:51:18;11.31;61.55
13713;DHT22;6928;50.546;7.120;2024-01-25T14:53:45;11.23;61.59
13713;DHT22;6928;50.546;7.120;2024-01-25T14:56:12;11.23;61.90
13713;DHT22;6928;50.546;7.120;2024-01-25T14:58:39;11.24;61.74
13713;DHT22;6928;50.546;7.120;2024-01-25T15:01:07;11.24;61.88
13713;DHT22;6928;50.546;7.120;2024-01-25T15:03:33;11.23;61.99
13713;DHT22;6928;50.546;7.120;2024-01-25T15:06:00;11.26;61.76
13713;DHT22;6928;50.546;7.120;2024-01-25T15:08:27;11.23;62.12
13713;DHT22;6928;50.546;7.120;2024-01-25T15:10:54;11.23;62.23
13713;DHT22;6928;50.546;7.120;2024-01-25T15:13:21;11.23;62.09
13713;DHT22;6928;50.546;7.120;2024-01-25T15:15:49;11.20;62.14
13713;DHT22;6928;50.546;7.120;2024-01-25T15:18:17;11.23;62.15
13713;DHT22;6928;50.546;7.120;2024-01-25T15:20:44;11.17;62.21
13713;DHT22;6928;50.546;7.120;2024-01-25T15:23:11;11.17;62.58
13713;DHT22;6928;50.546;7.120;2024-01-25T15:25:38;11.16;62.52
13713;DHT22;6928;50.546;7.120;2024-01-25T15:28:05;11.16;62.71
13713;DHT22;6928;50.546;7.120;2024-01-25T15:30:31;11.15;62.98
13713;DHT22;6928;50.546;7.120;2024-01-25T15:32:58;11.10;63.01
13713;DHT22;6928;50.546;7.120;2024-01-25T15:35:28;11.10;63.07
13713;DHT22;6928;50.546;7.120;2024-01-25T15:37:55;11.15;62.81
13713;DHT22;6928;50.546;7.120;2024-01-25T15:40:22;11.10;63.43
13713;DHT22;6928;50.546;7.120;2024-01-25T15:42:49;11.12;63.28
13713;DHT22;6928;50.546;7.120;2024-01-25T15:45:18;11.16;63.96
13713;DHT22;6928;50.546;7.120;2024-01-25T15:47:46;11.07;63.54
13713;DHT22;6928;50.546;7.120;2024-01-25T15:50:13;11.03;63.78
13713;DHT22;6928;50.546;7.120;2024-01-25T15:52:41;11.05;63.56
13713;DHT22;6928;50.546;7.120;2024-01-25T15:55:08;11.12;63.61
13713;DHT22;6928;50.546;7.120;2024-01-25T15:57:35;11.09;63.83